DNO454 EDDL-EDDM
Flight info
| Callsign | DNO454 |
|---|---|
| Flight time | 0h 51m |
| Altitude | 27000 |
| Route | DODEN1T DODEN Y853 BOMBI T104 ROKIL ROKIL1B |
| Aircraft | A20N/M-SDE2E3FGHIRWXY/LB1 |
Departure
| Time | 2026-05-04 18:46 |
|---|---|
| Airport | Düsseldorf Airport (EDDL) |
Arrival
| Time | 2026-05-04 19:37 |
|---|---|
| Airport | Munich Airport (EDDM) |
| Time | Latitude | Longitude | Altitude | Speed | Heading |
|---|---|---|---|---|---|
| 2026-05-04 18:12 | 51.28697 | 6.77491 | 135 ft | 0 kts | 324° |
| 2026-05-04 18:26 | 51.28695 | 6.77496 | 135 ft | 2 kts | 348° |
| 2026-05-04 18:26 | 51.28679 | 6.77498 | 134 ft | 2 kts | 317° |
| 2026-05-04 18:26 | 51.28666 | 6.77513 | 134 ft | 2 kts | 331° |
| 2026-05-04 18:26 | 51.28651 | 6.77525 | 134 ft | 2 kts | 340° |
| 2026-05-04 18:27 | 51.28635 | 6.77531 | 134 ft | 2 kts | 3° |
| 2026-05-04 18:27 | 51.28627 | 6.77529 | 133 ft | 0 kts | 30° |
| 2026-05-04 18:27 | 51.28623 | 6.77526 | 133 ft | 1 kts | 43° |
| 2026-05-04 18:27 | 51.28626 | 6.77527 | 133 ft | 1 kts | 28° |
| 2026-05-04 18:28 | 51.28630 | 6.77534 | 133 ft | 0 kts | 52° |
| 2026-05-04 18:28 | 51.28630 | 6.77535 | 133 ft | 0 kts | 59° |
| 2026-05-04 18:29 | 51.28630 | 6.77536 | 133 ft | 1 kts | 59° |
| 2026-05-04 18:29 | 51.28656 | 6.77602 | 133 ft | 11 kts | 68° |
| 2026-05-04 18:30 | 51.28728 | 6.77851 | 132 ft | 10 kts | 36° |
| 2026-05-04 18:30 | 51.28804 | 6.77813 | 135 ft | 17 kts | 326° |
| 2026-05-04 18:30 | 51.28905 | 6.77709 | 140 ft | 15 kts | 353° |
| 2026-05-04 18:31 | 51.28989 | 6.77824 | 142 ft | 25 kts | 52° |
| 2026-05-04 18:31 | 51.29096 | 6.78050 | 144 ft | 27 kts | 53° |
| 2026-05-04 18:31 | 51.29210 | 6.78289 | 145 ft | 27 kts | 52° |
| 2026-05-04 18:31 | 51.29311 | 6.78498 | 146 ft | 18 kts | 45° |
| 2026-05-04 18:32 | 51.29358 | 6.78561 | 146 ft | 0 kts | 26° |
| 2026-05-04 18:33 | 51.29365 | 6.78565 | 146 ft | 4 kts | 21° |
| 2026-05-04 18:33 | 51.29371 | 6.78568 | 146 ft | 0 kts | 17° |
| 2026-05-04 18:36 | 51.29378 | 6.78570 | 146 ft | 5 kts | 14° |
| 2026-05-04 18:37 | 51.29468 | 6.78565 | 148 ft | 16 kts | 355° |
| 2026-05-04 18:37 | 51.29545 | 6.78558 | 151 ft | 8 kts | 335° |
| 2026-05-04 18:37 | 51.29547 | 6.78527 | 151 ft | 4 kts | 240° |
| 2026-05-04 18:37 | 51.29541 | 6.78515 | 150 ft | 0 kts | 233° |
| 2026-05-04 18:38 | 51.29473 | 6.78372 | 147 ft | 49 kts | 232° |
| 2026-05-04 18:38 | 51.29099 | 6.77592 | 142 ft | 108 kts | 232° |
| 2026-05-04 18:38 | 51.28875 | 6.77123 | 140 ft | 30 kts | 233° |
| 2026-05-04 18:39 | 51.28684 | 6.76722 | 139 ft | 41 kts | 232° |
| 2026-05-04 18:39 | 51.28617 | 6.76644 | 139 ft | 13 kts | 160° |
| 2026-05-04 18:39 | 51.28536 | 6.76736 | 138 ft | 13 kts | 142° |
| 2026-05-04 18:39 | 51.28529 | 6.76746 | 138 ft | 0 kts | 142° |
| 2026-05-04 18:40 | 51.28514 | 6.76789 | 138 ft | 13 kts | 95° |
| 2026-05-04 18:40 | 51.28575 | 6.76956 | 140 ft | 20 kts | 52° |
| 2026-05-04 18:40 | 51.28663 | 6.77139 | 141 ft | 22 kts | 53° |
| 2026-05-04 18:41 | 51.28759 | 6.77341 | 140 ft | 23 kts | 52° |
| 2026-05-04 18:41 | 51.28827 | 6.77485 | 139 ft | 25 kts | 53° |
| 2026-05-04 18:41 | 51.28930 | 6.77699 | 141 ft | 24 kts | 53° |
| 2026-05-04 18:41 | 51.29033 | 6.77916 | 145 ft | 24 kts | 51° |
| 2026-05-04 18:42 | 51.29133 | 6.78125 | 145 ft | 13 kts | 51° |
| 2026-05-04 18:42 | 51.29194 | 6.78205 | 147 ft | 12 kts | 17° |
| 2026-05-04 18:42 | 51.29249 | 6.78195 | 148 ft | 0 kts | 334° |
| 2026-05-04 18:45 | 51.29261 | 6.78186 | 148 ft | 9 kts | 332° |
| 2026-05-04 18:45 | 51.29331 | 6.78094 | 147 ft | 7 kts | 289° |
| 2026-05-04 18:45 | 51.29323 | 6.78059 | 148 ft | 1 kts | 235° |
| 2026-05-04 18:45 | 51.29286 | 6.77976 | 148 ft | 30 kts | 233° |
| 2026-05-04 18:46 | 51.28972 | 6.77322 | 138 ft | 116 kts | 232° |
| 2026-05-04 18:46 | 51.28355 | 6.76004 | 220 ft | 172 kts | 232° |
| 2026-05-04 18:46 | 51.27618 | 6.74416 | 1000 ft | 176 kts | 231° |
| 2026-05-04 18:46 | 51.26900 | 6.72871 | 2104 ft | 172 kts | 232° |
| 2026-05-04 18:47 | 51.26162 | 6.71289 | 2803 ft | 186 kts | 232° |
| 2026-05-04 18:47 | 51.25347 | 6.69546 | 3320 ft | 207 kts | 232° |
| 2026-05-04 18:47 | 51.24441 | 6.67610 | 3871 ft | 229 kts | 232° |
| 2026-05-04 18:47 | 51.23429 | 6.65506 | 4530 ft | 246 kts | 226° |
| 2026-05-04 18:48 | 51.21979 | 6.63917 | 5111 ft | 265 kts | 200° |
| 2026-05-04 18:48 | 51.20085 | 6.63517 | 5629 ft | 288 kts | 178° |
| 2026-05-04 18:48 | 51.18012 | 6.63820 | 6109 ft | 310 kts | 174° |
| 2026-05-04 18:48 | 51.15845 | 6.64426 | 6501 ft | 333 kts | 162° |
| 2026-05-04 18:49 | 51.13756 | 6.66281 | 6803 ft | 358 kts | 142° |
| 2026-05-04 18:49 | 51.12099 | 6.69360 | 7120 ft | 380 kts | 122° |
| 2026-05-04 18:49 | 51.11167 | 6.73299 | 8062 ft | 374 kts | 102° |
| 2026-05-04 18:49 | 51.11116 | 6.77346 | 9187 ft | 363 kts | 82° |
| 2026-05-04 18:50 | 51.11859 | 6.81120 | 10336 ft | 351 kts | 69° |
| 2026-05-04 18:50 | 51.12753 | 6.84710 | 11333 ft | 348 kts | 72° |
| 2026-05-04 18:50 | 51.13413 | 6.88360 | 12142 ft | 351 kts | 79° |
| 2026-05-04 18:50 | 51.13830 | 6.92205 | 12956 ft | 354 kts | 85° |
| 2026-05-04 18:51 | 51.14078 | 6.96134 | 13772 ft | 358 kts | 88° |
| 2026-05-04 18:51 | 51.14242 | 7.00120 | 14468 ft | 362 kts | 89° |
| 2026-05-04 18:51 | 51.14377 | 7.04146 | 15187 ft | 366 kts | 89° |
| 2026-05-04 18:51 | 51.14508 | 7.08219 | 15882 ft | 370 kts | 89° |
| 2026-05-04 18:52 | 51.14641 | 7.12312 | 16562 ft | 374 kts | 89° |
| 2026-05-04 18:52 | 51.14748 | 7.16448 | 17260 ft | 378 kts | 94° |
| 2026-05-04 18:52 | 51.14303 | 7.20614 | 17911 ft | 377 kts | 112° |
| 2026-05-04 18:52 | 51.13235 | 7.24289 | 18530 ft | 378 kts | 120° |
| 2026-05-04 18:53 | 51.11986 | 7.28108 | 19116 ft | 383 kts | 120° |
| 2026-05-04 18:53 | 51.10730 | 7.31867 | 19712 ft | 387 kts | 121° |
| 2026-05-04 18:53 | 51.09458 | 7.35658 | 20284 ft | 391 kts | 121° |
| 2026-05-04 18:53 | 51.08170 | 7.39493 | 20845 ft | 395 kts | 121° |
| 2026-05-04 18:54 | 51.06883 | 7.43330 | 21418 ft | 399 kts | 121° |
| 2026-05-04 18:54 | 51.05553 | 7.47293 | 21989 ft | 403 kts | 121° |
| 2026-05-04 18:54 | 51.04215 | 7.51274 | 22365 ft | 413 kts | 121° |
| 2026-05-04 18:54 | 51.02841 | 7.55354 | 22520 ft | 427 kts | 121° |
| 2026-05-04 18:55 | 51.01412 | 7.59595 | 22669 ft | 440 kts | 121° |
| 2026-05-04 18:55 | 50.98443 | 7.68350 | 22937 ft | 464 kts | 123° |
| 2026-05-04 18:55 | 50.96543 | 7.72526 | 23068 ft | 470 kts | 134° |
| 2026-05-04 18:56 | 50.94134 | 7.76063 | 23194 ft | 476 kts | 146° |
| 2026-05-04 18:56 | 50.91341 | 7.78922 | 23538 ft | 477 kts | 151° |
| 2026-05-04 18:56 | 50.88510 | 7.81687 | 24039 ft | 476 kts | 151° |
| 2026-05-04 18:56 | 50.85734 | 7.84412 | 24589 ft | 474 kts | 151° |
| 2026-05-04 18:57 | 50.82899 | 7.87193 | 24746 ft | 481 kts | 151° |
| 2026-05-04 18:57 | 50.80050 | 7.89986 | 25017 ft | 482 kts | 151° |
| 2026-05-04 18:57 | 50.77202 | 7.92777 | 25398 ft | 480 kts | 151° |
| 2026-05-04 18:57 | 50.74359 | 7.95560 | 25784 ft | 478 kts | 151° |
| 2026-05-04 18:58 | 50.71533 | 7.98321 | 26176 ft | 476 kts | 152° |
| 2026-05-04 18:58 | 50.68751 | 8.01034 | 26561 ft | 475 kts | 152° |
| 2026-05-04 18:58 | 50.65937 | 8.03774 | 26819 ft | 473 kts | 152° |
| 2026-05-04 18:58 | 50.63137 | 8.06495 | 26918 ft | 471 kts | 152° |
| 2026-05-04 18:59 | 50.60486 | 8.09130 | 26990 ft | 471 kts | 149° |
| 2026-05-04 18:59 | 50.57913 | 8.12252 | 26992 ft | 474 kts | 143° |
| 2026-05-04 18:59 | 50.55406 | 8.15577 | 26990 ft | 475 kts | 143° |
| 2026-05-04 18:59 | 50.52862 | 8.18951 | 26990 ft | 474 kts | 143° |
| 2026-05-04 19:00 | 50.50343 | 8.22274 | 26986 ft | 474 kts | 143° |
| 2026-05-04 19:00 | 50.47814 | 8.25593 | 26984 ft | 474 kts | 143° |
| 2026-05-04 19:00 | 50.45277 | 8.28909 | 26979 ft | 474 kts | 143° |
| 2026-05-04 19:00 | 50.42729 | 8.32232 | 26974 ft | 474 kts | 143° |
| 2026-05-04 19:01 | 50.40225 | 8.35492 | 26972 ft | 474 kts | 143° |
| 2026-05-04 19:01 | 50.37685 | 8.38794 | 26979 ft | 474 kts | 143° |
| 2026-05-04 19:01 | 50.35112 | 8.42134 | 26969 ft | 474 kts | 143° |
| 2026-05-04 19:01 | 50.32590 | 8.45404 | 26968 ft | 474 kts | 143° |
| 2026-05-04 19:02 | 50.30052 | 8.48689 | 26969 ft | 474 kts | 143° |
| 2026-05-04 19:02 | 50.27522 | 8.51960 | 26974 ft | 474 kts | 143° |
| 2026-05-04 19:02 | 50.24980 | 8.55242 | 26964 ft | 475 kts | 143° |
| 2026-05-04 19:02 | 50.22434 | 8.58523 | 26963 ft | 475 kts | 143° |
| 2026-05-04 19:03 | 50.19882 | 8.61809 | 26962 ft | 475 kts | 143° |
| 2026-05-04 19:03 | 50.17321 | 8.65101 | 26964 ft | 475 kts | 143° |
| 2026-05-04 19:03 | 50.14776 | 8.68367 | 26972 ft | 476 kts | 143° |
| 2026-05-04 19:03 | 50.12211 | 8.71655 | 26962 ft | 476 kts | 143° |
| 2026-05-04 19:04 | 50.09669 | 8.74908 | 26957 ft | 476 kts | 143° |
| 2026-05-04 19:04 | 50.07101 | 8.78190 | 26964 ft | 476 kts | 143° |
| 2026-05-04 19:04 | 50.04610 | 8.81385 | 26967 ft | 476 kts | 143° |
| 2026-05-04 19:04 | 50.02068 | 8.84901 | 26970 ft | 478 kts | 140° |
| 2026-05-04 19:05 | 49.99621 | 8.88428 | 26963 ft | 478 kts | 140° |
| 2026-05-04 19:05 | 49.97181 | 8.91951 | 26968 ft | 478 kts | 140° |
| 2026-05-04 19:05 | 49.94731 | 8.95459 | 26967 ft | 478 kts | 141° |
| 2026-05-04 19:05 | 49.92307 | 8.98899 | 26968 ft | 478 kts | 141° |
| 2026-05-04 19:06 | 49.89840 | 9.02380 | 26970 ft | 478 kts | 141° |
| 2026-05-04 19:06 | 49.87377 | 9.05841 | 26970 ft | 478 kts | 141° |
| 2026-05-04 19:06 | 49.84950 | 9.09246 | 26970 ft | 478 kts | 141° |
| 2026-05-04 19:06 | 49.82472 | 9.12717 | 26970 ft | 478 kts | 141° |
| 2026-05-04 19:07 | 49.79963 | 9.16227 | 26971 ft | 478 kts | 141° |
| 2026-05-04 19:07 | 49.77493 | 9.19676 | 26968 ft | 478 kts | 141° |
| 2026-05-04 19:07 | 49.75019 | 9.23127 | 26965 ft | 479 kts | 141° |
| 2026-05-04 19:07 | 49.72547 | 9.26571 | 26965 ft | 478 kts | 141° |
| 2026-05-04 19:08 | 49.70073 | 9.30012 | 26966 ft | 479 kts | 141° |
| 2026-05-04 19:08 | 49.67627 | 9.33410 | 26970 ft | 479 kts | 141° |
| 2026-05-04 19:08 | 49.65157 | 9.36835 | 26970 ft | 479 kts | 141° |
| 2026-05-04 19:08 | 49.62657 | 9.40306 | 26971 ft | 480 kts | 140° |
| 2026-05-04 19:09 | 49.60335 | 9.44013 | 26973 ft | 483 kts | 134° |
| 2026-05-04 19:09 | 49.58115 | 9.47933 | 26967 ft | 483 kts | 134° |
| 2026-05-04 19:09 | 49.55900 | 9.51845 | 26966 ft | 483 kts | 134° |
| 2026-05-04 19:09 | 49.53711 | 9.55697 | 26965 ft | 483 kts | 134° |
| 2026-05-04 19:10 | 49.51497 | 9.59581 | 26967 ft | 483 kts | 135° |
| 2026-05-04 19:10 | 49.49277 | 9.63466 | 26969 ft | 483 kts | 135° |
| 2026-05-04 19:10 | 49.47069 | 9.67322 | 26886 ft | 477 kts | 135° |
| 2026-05-04 19:10 | 49.44884 | 9.71134 | 26381 ft | 472 kts | 135° |
| 2026-05-04 19:11 | 49.42708 | 9.74920 | 25711 ft | 468 kts | 135° |
| 2026-05-04 19:11 | 49.40622 | 9.78552 | 25540 ft | 451 kts | 135° |
| 2026-05-04 19:11 | 49.38581 | 9.82101 | 25368 ft | 435 kts | 135° |
| 2026-05-04 19:11 | 49.36612 | 9.85514 | 25165 ft | 421 kts | 135° |
| 2026-05-04 19:12 | 49.34695 | 9.88825 | 25028 ft | 411 kts | 135° |
| 2026-05-04 19:12 | 49.30808 | 9.95503 | 24966 ft | 420 kts | 135° |
| 2026-05-04 19:12 | 49.28884 | 9.98810 | 24964 ft | 419 kts | 135° |
| 2026-05-04 19:13 | 49.26933 | 10.02163 | 24967 ft | 420 kts | 135° |
| 2026-05-04 19:13 | 49.24987 | 10.05503 | 24963 ft | 420 kts | 135° |
| 2026-05-04 19:13 | 49.23037 | 10.08845 | 24967 ft | 420 kts | 135° |
| 2026-05-04 19:13 | 49.21093 | 10.12172 | 24969 ft | 420 kts | 135° |
| 2026-05-04 19:14 | 49.19183 | 10.15438 | 24975 ft | 420 kts | 135° |
| 2026-05-04 19:14 | 49.17218 | 10.18797 | 24974 ft | 420 kts | 135° |
| 2026-05-04 19:14 | 49.15269 | 10.22125 | 24978 ft | 420 kts | 135° |
| 2026-05-04 19:14 | 49.13317 | 10.25441 | 24979 ft | 420 kts | 136° |
| 2026-05-04 19:15 | 49.11306 | 10.28715 | 24979 ft | 427 kts | 137° |
| 2026-05-04 19:15 | 49.09211 | 10.32049 | 24983 ft | 443 kts | 137° |
| 2026-05-04 19:15 | 49.07045 | 10.35493 | 24982 ft | 457 kts | 136° |
| 2026-05-04 19:15 | 49.04855 | 10.38985 | 24982 ft | 470 kts | 136° |
| 2026-05-04 19:16 | 49.02533 | 10.42699 | 24982 ft | 481 kts | 136° |
| 2026-05-04 19:16 | 49.00206 | 10.46426 | 24984 ft | 485 kts | 136° |
| 2026-05-04 19:16 | 48.97928 | 10.50074 | 24916 ft | 466 kts | 136° |
| 2026-05-04 19:16 | 48.95734 | 10.53581 | 24729 ft | 448 kts | 136° |
| 2026-05-04 19:17 | 48.93661 | 10.56887 | 24507 ft | 427 kts | 136° |
| 2026-05-04 19:17 | 48.91648 | 10.60091 | 24227 ft | 414 kts | 136° |
| 2026-05-04 19:17 | 48.89664 | 10.63241 | 23699 ft | 410 kts | 136° |
| 2026-05-04 19:17 | 48.87699 | 10.66354 | 23075 ft | 407 kts | 136° |
| 2026-05-04 19:18 | 48.85747 | 10.69443 | 22474 ft | 403 kts | 136° |
| 2026-05-04 19:18 | 48.83815 | 10.72500 | 21877 ft | 400 kts | 136° |
| 2026-05-04 19:18 | 48.81895 | 10.75534 | 21278 ft | 396 kts | 136° |
| 2026-05-04 19:18 | 48.79994 | 10.78535 | 20696 ft | 393 kts | 136° |
| 2026-05-04 19:19 | 48.78098 | 10.81514 | 20128 ft | 390 kts | 136° |
| 2026-05-04 19:19 | 48.76219 | 10.84460 | 19562 ft | 387 kts | 136° |
| 2026-05-04 19:19 | 48.74352 | 10.87384 | 19024 ft | 385 kts | 137° |
| 2026-05-04 19:19 | 48.72495 | 10.90291 | 18479 ft | 382 kts | 137° |
| 2026-05-04 19:20 | 48.70650 | 10.93176 | 17922 ft | 379 kts | 137° |
| 2026-05-04 19:20 | 48.68818 | 10.96037 | 17370 ft | 375 kts | 137° |
| 2026-05-04 19:20 | 48.67032 | 10.98821 | 16858 ft | 371 kts | 137° |
| 2026-05-04 19:20 | 48.65219 | 11.01641 | 16279 ft | 369 kts | 137° |
| 2026-05-04 19:21 | 48.63468 | 11.04361 | 15874 ft | 362 kts | 137° |
| 2026-05-04 19:21 | 48.61721 | 11.07075 | 15637 ft | 362 kts | 137° |
| 2026-05-04 19:21 | 48.59865 | 11.09641 | 15383 ft | 361 kts | 142° |
| 2026-05-04 19:21 | 48.57964 | 11.12095 | 15133 ft | 359 kts | 142° |
| 2026-05-04 19:22 | 48.56077 | 11.14541 | 14895 ft | 356 kts | 142° |
| 2026-05-04 19:22 | 48.54196 | 11.16957 | 14651 ft | 354 kts | 143° |
| 2026-05-04 19:22 | 48.52289 | 11.19382 | 14406 ft | 353 kts | 143° |
| 2026-05-04 19:22 | 48.50440 | 11.21716 | 14170 ft | 351 kts | 143° |
| 2026-05-04 19:23 | 48.48569 | 11.24070 | 13933 ft | 349 kts | 143° |
| 2026-05-04 19:23 | 48.46706 | 11.26412 | 13693 ft | 348 kts | 143° |
| 2026-05-04 19:23 | 48.44852 | 11.28738 | 13425 ft | 346 kts | 143° |
| 2026-05-04 19:23 | 48.43102 | 11.31228 | 13152 ft | 349 kts | 131° |
| 2026-05-04 19:24 | 48.41973 | 11.34480 | 12895 ft | 356 kts | 109° |
| 2026-05-04 19:24 | 48.41684 | 11.38197 | 12637 ft | 362 kts | 89° |
| 2026-05-04 19:24 | 48.41947 | 11.41963 | 12381 ft | 362 kts | 85° |
| 2026-05-04 19:24 | 48.42290 | 11.45715 | 12130 ft | 361 kts | 84° |
| 2026-05-04 19:25 | 48.42634 | 11.49447 | 11870 ft | 359 kts | 84° |
| 2026-05-04 19:25 | 48.42959 | 11.53171 | 11616 ft | 358 kts | 85° |
| 2026-05-04 19:25 | 48.43267 | 11.56894 | 11367 ft | 358 kts | 85° |
| 2026-05-04 19:25 | 48.43563 | 11.60608 | 11118 ft | 357 kts | 85° |
| 2026-05-04 19:26 | 48.43853 | 11.64296 | 10977 ft | 353 kts | 85° |
| 2026-05-04 19:26 | 48.44135 | 11.67911 | 10902 ft | 344 kts | 85° |
| 2026-05-04 19:26 | 48.44408 | 11.71425 | 10788 ft | 332 kts | 85° |
| 2026-05-04 19:26 | 48.44671 | 11.74816 | 10551 ft | 320 kts | 86° |
| 2026-05-04 19:27 | 48.44924 | 11.78111 | 10077 ft | 313 kts | 86° |
| 2026-05-04 19:27 | 48.45171 | 11.81353 | 9572 ft | 307 kts | 86° |
| 2026-05-04 19:27 | 48.45330 | 11.83457 | 9230 ft | 304 kts | 85° |
| 2026-05-04 19:27 | 48.45566 | 11.86583 | 8716 ft | 298 kts | 85° |
| 2026-05-04 19:28 | 48.45799 | 11.89675 | 8221 ft | 297 kts | 85° |
| 2026-05-04 19:28 | 48.46031 | 11.92785 | 7716 ft | 300 kts | 85° |
| 2026-05-04 19:28 | 48.46265 | 11.95907 | 7228 ft | 301 kts | 85° |
| 2026-05-04 19:28 | 48.46500 | 11.99053 | 6745 ft | 302 kts | 85° |
| 2026-05-04 19:29 | 48.46735 | 12.02210 | 6266 ft | 303 kts | 84° |
| 2026-05-04 19:29 | 48.46971 | 12.05381 | 5758 ft | 303 kts | 84° |
| 2026-05-04 19:29 | 48.47202 | 12.08500 | 5267 ft | 304 kts | 84° |
| 2026-05-04 19:29 | 48.47436 | 12.11665 | 4774 ft | 304 kts | 84° |
| 2026-05-04 19:30 | 48.47668 | 12.14826 | 4297 ft | 302 kts | 84° |
| 2026-05-04 19:30 | 48.47761 | 12.17926 | 4079 ft | 291 kts | 98° |
| 2026-05-04 19:30 | 48.47079 | 12.20690 | 3980 ft | 276 kts | 125° |
| 2026-05-04 19:30 | 48.45749 | 12.22520 | 3967 ft | 257 kts | 153° |
| 2026-05-04 19:31 | 48.44064 | 12.23108 | 3988 ft | 238 kts | 184° |
| 2026-05-04 19:31 | 48.42522 | 12.22320 | 3984 ft | 241 kts | 215° |
| 2026-05-04 19:31 | 48.41400 | 12.20478 | 3988 ft | 239 kts | 234° |
| 2026-05-04 19:31 | 48.40437 | 12.18436 | 3990 ft | 240 kts | 234° |
| 2026-05-04 19:32 | 48.39623 | 12.16245 | 3993 ft | 240 kts | 249° |
| 2026-05-04 19:32 | 48.39178 | 12.13827 | 3995 ft | 241 kts | 259° |
| 2026-05-04 19:32 | 48.38927 | 12.11341 | 3994 ft | 241 kts | 263° |
| 2026-05-04 19:32 | 48.38739 | 12.08897 | 3988 ft | 225 kts | 263° |
| 2026-05-04 19:33 | 48.38569 | 12.06696 | 3988 ft | 204 kts | 263° |
| 2026-05-04 19:33 | 48.38402 | 12.04527 | 3996 ft | 209 kts | 263° |
| 2026-05-04 19:33 | 48.38239 | 12.02397 | 4022 ft | 195 kts | 263° |
| 2026-05-04 19:33 | 48.38092 | 12.00480 | 3851 ft | 174 kts | 263° |
| 2026-05-04 19:34 | 48.37962 | 11.98774 | 3632 ft | 156 kts | 263° |
| 2026-05-04 19:34 | 48.37842 | 11.97213 | 3445 ft | 149 kts | 263° |
| 2026-05-04 19:34 | 48.37723 | 11.95652 | 3256 ft | 150 kts | 263° |
| 2026-05-04 19:34 | 48.37604 | 11.94102 | 3059 ft | 149 kts | 264° |
| 2026-05-04 19:35 | 48.37486 | 11.92553 | 2862 ft | 149 kts | 264° |
| 2026-05-04 19:35 | 48.37368 | 11.91008 | 2672 ft | 149 kts | 264° |
| 2026-05-04 19:35 | 48.37249 | 11.89460 | 2475 ft | 148 kts | 264° |
| 2026-05-04 19:35 | 48.37133 | 11.87938 | 2267 ft | 144 kts | 264° |
| 2026-05-04 19:36 | 48.37019 | 11.86455 | 2069 ft | 141 kts | 264° |
| 2026-05-04 19:36 | 48.36908 | 11.84992 | 1877 ft | 140 kts | 264° |
| 2026-05-04 19:36 | 48.36797 | 11.83549 | 1694 ft | 138 kts | 265° |
| 2026-05-04 19:36 | 48.36692 | 11.82154 | 1517 ft | 138 kts | 264° |
| 2026-05-04 19:37 | 48.36587 | 11.80760 | 1462 ft | 113 kts | 264° |
| 2026-05-04 19:37 | 48.36521 | 11.79880 | 1458 ft | 64 kts | 262° |
| 2026-05-04 19:37 | 48.36461 | 11.79154 | 1469 ft | 50 kts | 261° |
| 2026-05-04 19:37 | 48.36337 | 11.78781 | 1464 ft | 30 kts | 233° |